Time,TemperatureF,DewpointF,PressureIn,WindDirection,WindDirectionDegrees,WindSpeedMPH,WindSpeedGustMPH,Humidity,HourlyPrecipIn,Conditions,Clouds,dailyrainin,SoftwareType,DateUTC
2013-05-05 00:01:00,59.9,39.6,29.92,ENE,67,0.0,0.0,47,0.00,CLR,,0.00,WeatherDisplay:10.37,2013-05-05 04:01:00,
2013-05-05 00:02:00,60.0,40.2,29.92,ENE,67,0.0,0.0,48,0.00,CLR,,0.00,WeatherDisplay:10.37,2013-05-05 04:02:00,
2013-05-05 00:03:00,59.9,40.1,29.92,ENE,67,0.0,0.0,48,0.00,CLR,,0.00,WeatherDisplay:10.37,2013-05-05 04:03:00,
2013-05-05 00:04:00,59.7,40.0,29.92,ENE,67,0.0,0.0,48,0.00,CLR,,0.00,WeatherDisplay:10.37,2013-05-05 04:04:00,
2013-05-05 00:09:00,59.3,40.1,29.92,ENE,67,0.0,0.0,49,0.00,CLR,,0.00,WeatherDisplay:10.37,2013-05-05 04:09:00,
2013-05-05 00:14:00,59.2,40.0,29.92,ENE,67,0.0,0.0,49,0.00,CLR,,0.00,WeatherDisplay:10.37,2013-05-05 04:14:00,
2013-05-05 00:19:00,59.1,39.9,29.93,ENE,67,0.0,0.0,49,0.00,CLR,,0.00,WeatherDisplay:10.37,2013-05-05 04:19:00,
2013-05-05 00:24:00,58.7,40.1,29.93,East,87,5.0,5.0,50,0.00,CLR,,0.00,WeatherDisplay:10.37,2013-05-05 04:24:00,
2013-05-05 00:29:00,55.5,39.6,29.93,East,87,5.0,5.0,55,0.00,CLR,,0.00,WeatherDisplay:10.37,2013-05-05 04:29:00,
2013-05-05 00:34:00,54.2,41.0,29.94,East,90,9.2,9.2,61,0.00,CLR,,0.00,WeatherDisplay:10.37,2013-05-05 04:34:00,
2013-05-05 00:39:00,54.8,42.0,29.94,East,94,6.0,6.0,62,0.00,CLR,,0.00,WeatherDisplay:10.37,2013-05-05 04:39:00,
2013-05-05 00:44:00,54.8,42.0,29.94,East,86,3.5,3.5,62,0.00,CLR,,0.00,WeatherDisplay:10.37,2013-05-05 04:44:00,
2013-05-05 00:49:00,55.4,42.2,29.93,East,86,3.0,3.0,61,0.00,CLR,,0.00,WeatherDisplay:10.37,2013-05-05 04:49:00,
2013-05-05 00:54:00,57.2,41.6,29.93,ENE,69,4.0,4.0,56,0.00,CLR,,0.00,WeatherDisplay:10.37,2013-05-05 04:54:00,
2013-05-05 00:59:00,58.3,41.7,29.93,East,90,6.0,6.0,54,0.00,CLR,,0.00,WeatherDisplay:10.37,2013-05-05 04:59:00,
2013-05-05 01:04:00,58.5,41.9,29.93,East,90,6.0,6.0,54,0.00,CLR,,0.00,WeatherDisplay:10.37,2013-05-05 05:04:00,
2013-05-05 01:09:00,58.3,41.7,29.93,ENE,75,3.5,3.5,54,0.00,CLR,,0.00,WeatherDisplay:10.37,2013-05-05 05:09:00,
2013-05-05 01:14:00,58.1,41.5,29.93,ENE,78,5.8,5.8,54,0.00,CLR,,0.00,WeatherDisplay:10.37,2013-05-05 05:14:00,
2013-05-05 01:19:00,57.5,41.9,29.93,East,84,3.5,3.5,56,0.00,CLR,,0.00,WeatherDisplay:10.37,2013-05-05 05:19:00,
2013-05-05 01:24:00,56.7,42.1,29.93,ENE,67,5.0,5.0,58,0.00,CLR,,0.00,WeatherDisplay:10.37,2013-05-05 05:24:00,
2013-05-05 01:29:00,56.3,42.1,29.93,ENE,76,5.0,5.0,59,0.00,CLR,,0.00,WeatherDisplay:10.37,2013-05-05 05:29:00,
2013-05-05 01:34:00,56.1,42.4,29.93,East,87,5.8,5.8,60,0.00,CLR,,0.00,WeatherDisplay:10.37,2013-05-05 05:34:00,
2013-05-05 01:39:00,55.8,42.5,29.93,ENE,73,3.5,3.5,61,0.00,CLR,,0.00,WeatherDisplay:10.37,2013-05-05 05:39:00,
2013-05-05 01:44:00,55.6,42.4,29.93,ENE,73,3.5,3.5,61,0.00,CLR,,0.00,WeatherDisplay:10.37,2013-05-05 05:44:00,
2013-05-05 01:49:00,55.1,42.3,29.93,ENE,65,3.0,3.0,62,0.00,CLR,,0.00,WeatherDisplay:10.37,2013-05-05 05:49:00,
2013-05-05 01:54:00,55.0,42.2,29.93,ENE,65,2.3,2.3,62,0.00,CLR,,0.00,WeatherDisplay:10.37,2013-05-05 05:54:00,
2013-05-05 01:59:00,54.7,41.9,29.93,ENE,66,4.0,4.0,62,0.00,CLR,,0.00,WeatherDisplay:10.37,2013-05-05 05:59:00,
2013-05-05 02:04:00,55.0,42.2,29.93,ENE,75,6.9,6.9,62,0.00,CLR,,0.00,WeatherDisplay:10.37,2013-05-05 06:04:00,
2013-05-05 02:09:00,55.0,42.2,29.93,ENE,77,2.3,2.3,62,0.00,CLR,,0.00,WeatherDisplay:10.37,2013-05-05 06:09:00,
2013-05-05 02:14:00,54.2,42.3,29.93,ENE,77,1.2,1.2,64,0.00,CLR,,0.00,WeatherDisplay:10.37,2013-05-05 06:14:00,
2013-05-05 02:19:00,54.2,42.3,29.93,ENE,72,4.0,4.0,64,0.00,CLR,,0.00,WeatherDisplay:10.37,2013-05-05 06:19:00,
2013-05-05 02:24:00,54.6,42.3,29.93,ENE,59,6.9,6.9,63,0.00,CLR,,0.00,WeatherDisplay:10.37,2013-05-05 06:24:00,
2013-05-05 02:29:00,55.1,42.3,29.93,ENE,67,4.6,4.6,62,0.00,CLR,,0.00,WeatherDisplay:10.37,2013-05-05 06:29:00,
2013-05-05 02:34:00,54.8,42.0,29.93,ENE,67,3.5,3.5,62,0.00,CLR,,0.00,WeatherDisplay:10.37,2013-05-05 06:34:00,
2013-05-05 02:39:00,54.1,42.2,29.93,ENE,66,3.5,3.5,64,0.00,CLR,,0.00,WeatherDisplay:10.37,2013-05-05 06:39:00,
2013-05-05 02:44:00,53.5,42.0,29.93,ENE,69,4.0,4.0,65,0.00,CLR,,0.00,WeatherDisplay:10.37,2013-05-05 06:44:00,
2013-05-05 02:49:00,53.8,41.9,29.93,East,84,6.0,6.0,64,0.00,CLR,,0.00,WeatherDisplay:10.37,2013-05-05 06:49:00,
2013-05-05 02:54:00,54.4,42.1,29.94,East,89,6.0,6.0,63,0.00,CLR,,0.00,WeatherDisplay:10.37,2013-05-05 06:54:00,
2013-05-05 02:59:00,55.0,42.2,29.93,East,85,5.0,5.0,62,0.00,CLR,,0.00,WeatherDisplay:10.37,2013-05-05 06:59:00,
2013-05-05 03:04:00,55.6,41.9,29.94,East,80,8.1,8.1,60,0.00,CLR,,0.00,WeatherDisplay:10.37,2013-05-05 07:04:00,
2013-05-05 03:10:00,55.8,42.1,29.94,ENE,72,6.9,6.9,60,0.00,CLR,,0.00,WeatherDisplay:10.37,2013-05-05 07:10:00,
2013-05-05 03:15:00,55.7,42.0,29.94,ENE,62,4.6,4.6,60,0.00,CLR,,0.00,WeatherDisplay:10.37,2013-05-05 07:15:00,
2013-05-05 03:20:00,55.3,42.1,29.94,ENE,63,6.9,6.9,61,0.00,CLR,,0.00,WeatherDisplay:10.37,2013-05-05 07:20:00,
2013-05-05 03:25:00,55.2,42.0,29.94,ENE,74,6.9,6.9,61,0.00,CLR,,0.00,WeatherDisplay:10.37,2013-05-05 07:25:00,
2013-05-05 03:30:00,55.5,42.3,29.94,East,91,8.1,8.1,61,0.00,CLR,,0.00,WeatherDisplay:10.37,2013-05-05 07:30:00,
2013-05-05 03:35:00,55.4,42.2,29.94,ENE,75,8.1,8.1,61,0.00,CLR,,0.00,WeatherDisplay:10.37,2013-05-05 07:35:00,
2013-05-05 03:40:00,55.3,41.6,29.94,ENE,61,7.0,7.0,60,0.00,CLR,,0.00,WeatherDisplay:10.37,2013-05-05 07:40:00,
2013-05-05 03:45:00,55.1,41.5,29.94,East,96,7.0,7.0,60,0.00,CLR,,0.00,WeatherDisplay:10.37,2013-05-05 07:45:00,
2013-05-05 03:50:00,54.9,41.3,29.94,ENE,62,6.9,6.9,60,0.00,CLR,,0.00,WeatherDisplay:10.37,2013-05-05 07:50:00,
2013-05-05 03:55:00,54.5,40.9,29.94,NE,54,7.0,7.0,60,0.00,CLR,,0.00,WeatherDisplay:10.37,2013-05-05 07:55:00,
2013-05-05 04:00:00,54.3,40.7,29.94,East,95,8.0,8.0,60,0.00,CLR,,0.00,WeatherDisplay:10.37,2013-05-05 08:00:00,
2013-05-05 04:05:00,54.2,41.0,29.94,ENE,60,8.0,8.0,61,0.00,CLR,,0.00,WeatherDisplay:10.37,2013-05-05 08:05:00,
2013-05-05 04:10:00,54.1,40.9,29.94,ESE,103,8.0,8.0,61,0.00,CLR,,0.00,WeatherDisplay:10.37,2013-05-05 08:10:00,
2013-05-05 04:15:00,54.0,40.8,29.94,ENE,68,8.1,8.1,61,0.00,CLR,,0.00,WeatherDisplay:10.37,2013-05-05 08:15:00,
2013-05-05 04:20:00,54.0,40.8,29.94,ENE,66,7.0,7.0,61,0.00,CLR,,0.00,WeatherDisplay:10.37,2013-05-05 08:20:00,
2013-05-05 04:25:00,53.8,40.7,29.94,ENE,75,8.1,8.1,61,0.00,CLR,,0.00,WeatherDisplay:10.37,2013-05-05 08:25:00,
2013-05-05 04:30:00,53.7,40.6,29.94,NE,53,9.0,9.0,61,0.00,CLR,,0.00,WeatherDisplay:10.37,2013-05-05 08:30:00,
2013-05-05 04:35:00,53.6,40.5,29.94,East,83,9.0,9.0,61,0.00,CLR,,0.00,WeatherDisplay:10.37,2013-05-05 08:35:00,
2013-05-05 04:40:00,53.5,40.8,29.94,East,85,7.0,7.0,62,0.00,CLR,,0.00,WeatherDisplay:10.37,2013-05-05 08:40:00,
2013-05-05 04:45:00,53.3,40.6,29.94,East,82,9.2,9.2,62,0.00,CLR,,0.00,WeatherDisplay:10.37,2013-05-05 08:45:00,
2013-05-05 04:50:00,53.2,40.5,29.94,ENE,76,9.2,9.2,62,0.00,CLR,,0.00,WeatherDisplay:10.37,2013-05-05 08:50:00,
2013-05-05 04:55:00,53.1,40.4,29.94,East,82,8.1,8.1,62,0.00,CLR,,0.00,WeatherDisplay:10.37,2013-05-05 08:55:00,
2013-05-05 05:00:00,53.0,40.7,29.94,ESE,105,9.2,9.2,63,0.00,CLR,,0.00,WeatherDisplay:10.37,2013-05-05 09:00:00,
2013-05-05 05:05:00,52.8,40.5,29.94,ENE,69,7.0,7.0,63,0.00,CLR,,0.00,WeatherDisplay:10.37,2013-05-05 09:05:00,
2013-05-05 05:10:00,52.7,40.5,29.94,ENE,71,10.4,10.4,63,0.00,CLR,,0.00,WeatherDisplay:10.37,2013-05-05 09:10:00,
2013-05-05 05:15:00,52.6,40.4,29.94,ENE,73,9.0,9.0,63,0.00,CLR,,0.00,WeatherDisplay:10.37,2013-05-05 09:15:00,
2013-05-05 05:20:00,52.5,40.3,29.94,ENE,63,8.1,8.1,63,0.00,CLR,,0.00,WeatherDisplay:10.37,2013-05-05 09:20:00,
2013-05-05 05:25:00,52.4,40.6,29.95,ENE,74,6.9,6.9,64,0.00,CLR,,0.00,WeatherDisplay:10.37,2013-05-05 09:25:00,
2013-05-05 05:30:00,52.3,40.5,29.95,East,80,8.0,8.0,64,0.00,CLR,,0.00,WeatherDisplay:10.37,2013-05-05 09:30:00,
2013-05-05 05:35:00,52.2,40.4,29.95,ENE,76,7.0,7.0,64,0.00,CLR,,0.00,WeatherDisplay:10.37,2013-05-05 09:35:00,
2013-05-05 05:40:00,52.0,40.6,29.95,ENE,61,8.1,8.1,65,0.00,CLR,,0.00,WeatherDisplay:10.37,2013-05-05 09:40:00,
2013-05-05 05:45:00,51.9,40.5,29.95,ENE,73,8.1,8.1,65,0.00,CLR,,0.00,WeatherDisplay:10.37,2013-05-05 09:45:00,
2013-05-05 05:50:00,51.7,40.7,29.95,East,82,7.0,7.0,66,0.00,CLR,,0.00,WeatherDisplay:10.37,2013-05-05 09:50:00,
2013-05-05 05:55:00,51.5,40.5,29.95,ENE,74,5.0,5.0,66,0.00,CLR,,0.00,WeatherDisplay:10.37,2013-05-05 09:55:00,
2013-05-05 06:00:00,51.4,40.4,29.96,ENE,71,4.6,4.6,66,0.00,CLR,,0.00,WeatherDisplay:10.37,2013-05-05 10:00:00,
2013-05-05 06:05:00,51.3,40.7,29.96,East,86,6.9,6.9,67,0.00,CLR,,0.00,WeatherDisplay:10.37,2013-05-05 10:05:00,
2013-05-05 06:10:00,51.2,40.6,29.96,ENE,65,8.1,8.1,67,0.00,CLR,,0.00,WeatherDisplay:10.37,2013-05-05 10:10:00,
2013-05-05 06:15:00,51.2,40.6,29.96,ESE,105,9.2,9.2,67,0.00,CLR,,0.00,WeatherDisplay:10.37,2013-05-05 10:15:00,
2013-05-05 06:20:00,51.3,41.1,29.96,East,88,10.4,10.4,68,0.00,CLR,,0.00,WeatherDisplay:10.37,2013-05-05 10:20:00,
2013-05-05 06:25:00,51.4,41.2,29.96,ENE,66,9.2,9.2,68,0.00,CLR,,0.00,WeatherDisplay:10.37,2013-05-05 10:25:00,
2013-05-05 06:30:00,51.4,41.2,29.97,East,87,9.2,9.2,68,0.00,CLR,,0.00,WeatherDisplay:10.37,2013-05-05 10:30:00,
2013-05-05 06:35:00,51.4,41.2,29.97,East,86,8.1,8.1,68,0.00,CLR,,0.00,WeatherDisplay:10.37,2013-05-05 10:35:00,
2013-05-05 06:40:00,51.5,41.3,29.97,ENE,77,9.2,9.2,68,0.00,CLR,,0.00,WeatherDisplay:10.37,2013-05-05 10:40:00,
2013-05-05 06:45:00,51.6,41.4,29.97,East,82,9.2,9.2,68,0.00,CLR,,0.00,WeatherDisplay:10.37,2013-05-05 10:45:00,
2013-05-05 06:50:00,51.8,41.9,29.97,East,90,9.2,9.2,69,0.00,CLR,,0.00,WeatherDisplay:10.37,2013-05-05 10:50:00,
2013-05-05 06:55:00,52.1,42.2,29.97,East,90,10.4,10.4,69,0.00,CLR,,0.00,WeatherDisplay:10.37,2013-05-05 10:55:00,
2013-05-05 07:00:00,52.4,42.1,29.97,ESE,105,9.0,9.0,68,0.00,CLR,,0.00,WeatherDisplay:10.37,2013-05-05 11:00:00,
2013-05-05 07:05:00,52.7,42.4,29.97,ENE,65,9.2,9.2,68,0.00,CLR,,0.00,WeatherDisplay:10.37,2013-05-05 11:05:00,
2013-05-05 07:10:00,53.0,42.3,29.97,East,91,9.0,9.0,67,0.00,CLR,,0.00,WeatherDisplay:10.37,2013-05-05 11:10:00,
2013-05-05 07:15:00,53.3,42.6,29.97,East,84,8.0,8.0,67,0.00,CLR,,0.00,WeatherDisplay:10.37,2013-05-05 11:15:00,
2013-05-05 07:20:00,53.6,42.5,29.97,East,96,10.4,10.4,66,0.00,CLR,,0.00,WeatherDisplay:10.37,2013-05-05 11:20:00,
2013-05-05 07:25:00,54.0,42.9,29.98,East,87,7.0,7.0,66,0.00,CLR,,0.00,WeatherDisplay:10.37,2013-05-05 11:25:00,
2013-05-05 07:30:00,54.3,43.2,29.98,ENE,76,6.9,6.9,66,0.00,CLR,,0.00,WeatherDisplay:10.37,2013-05-05 11:30:00,
2013-05-05 07:35:00,54.6,43.1,29.97,ENE,74,7.0,7.0,65,0.00,CLR,,0.00,WeatherDisplay:10.37,2013-05-05 11:35:00,
2013-05-05 07:40:00,54.8,43.3,29.98,East,81,7.0,7.0,65,0.00,CLR,,0.00,WeatherDisplay:10.37,2013-05-05 11:40:00,
2013-05-05 07:45:00,55.0,43.0,29.98,ENE,64,9.2,9.2,64,0.00,CLR,,0.00,WeatherDisplay:10.37,2013-05-05 11:45:00,
2013-05-05 07:50:00,55.1,43.1,29.98,East,94,7.0,7.0,64,0.00,CLR,,0.00,WeatherDisplay:10.37,2013-05-05 11:50:00,
2013-05-05 07:55:00,55.5,43.5,29.98,East,94,7.0,7.0,64,0.00,CLR,,0.00,WeatherDisplay:10.37,2013-05-05 11:55:00,
2013-05-05 08:00:00,55.8,43.8,29.97,ENE,68,7.0,7.0,64,0.00,CLR,,0.00,WeatherDisplay:10.37,2013-05-05 12:00:00,
2013-05-05 08:05:00,56.2,43.8,29.98,East,94,8.1,8.1,63,0.00,CLR,,0.00,WeatherDisplay:10.37,2013-05-05 12:05:00,
2013-05-05 08:10:00,56.6,43.7,29.97,East,90,9.2,9.2,62,0.00,CLR,,0.00,WeatherDisplay:10.37,2013-05-05 12:10:00,
2013-05-05 08:15:00,57.0,44.1,29.97,East,83,7.0,7.0,62,0.00,CLR,,0.00,WeatherDisplay:10.37,2013-05-05 12:15:00,
2013-05-05 08:20:00,57.1,43.8,29.98,ENE,74,9.2,9.2,61,0.00,CLR,,0.00,WeatherDisplay:10.37,2013-05-05 12:20:00,
2013-05-05 08:25:00,57.4,44.1,29.98,ENE,76,10.4,10.4,61,0.00,CLR,,0.00,WeatherDisplay:10.37,2013-05-05 12:25:00,
2013-05-05 08:30:00,57.6,44.7,29.98,East,88,8.1,8.1,62,0.00,CLR,,0.00,WeatherDisplay:10.37,2013-05-05 12:30:00,
2013-05-05 08:35:00,57.8,44.4,29.98,ENE,78,5.0,5.0,61,0.00,CLR,,0.00,WeatherDisplay:10.37,2013-05-05 12:35:00,
2013-05-05 08:40:00,58.2,45.2,29.98,ENE,70,8.1,8.1,62,0.00,CLR,,0.00,WeatherDisplay:10.37,2013-05-05 12:40:00,
2013-05-05 08:45:00,58.3,44.5,29.98,East,84,7.0,7.0,60,0.00,CLR,,0.00,WeatherDisplay:10.37,2013-05-05 12:45:00,
2013-05-05 08:50:00,58.7,45.3,29.98,East,83,8.0,8.0,61,0.00,CLR,,0.00,WeatherDisplay:10.37,2013-05-05 12:50:00,
2013-05-05 08:55:00,58.7,44.8,29.98,East,81,6.0,6.0,60,0.00,CLR,,0.00,WeatherDisplay:10.37,2013-05-05 12:55:00,
2013-05-05 09:00:00,59.0,45.1,29.98,East,97,6.9,6.9,60,0.00,CLR,,0.00,WeatherDisplay:10.37,2013-05-05 13:00:00,
2013-05-05 09:05:00,59.4,45.1,29.98,East,84,8.1,8.1,59,0.00,CLR,,0.00,WeatherDisplay:10.37,2013-05-05 13:05:00,
2013-05-05 09:10:00,59.8,45.9,29.98,ESE,103,5.0,5.0,60,0.00,CLR,,0.00,WeatherDisplay:10.37,2013-05-05 13:10:00,
2013-05-05 09:15:00,60.0,45.6,29.98,ENE,76,3.0,3.0,59,0.00,CLR,,0.00,WeatherDisplay:10.37,2013-05-05 13:15:00,
2013-05-05 09:20:00,60.5,45.6,29.98,ESE,102,8.1,8.1,58,0.00,CLR,,0.00,WeatherDisplay:10.37,2013-05-05 13:20:00,
2013-05-05 09:25:00,60.8,46.4,29.98,ENE,72,6.0,6.0,59,0.00,CLR,,0.00,WeatherDisplay:10.37,2013-05-05 13:25:00,
2013-05-05 09:30:00,61.0,47.4,29.98,East,82,3.5,3.5,61,0.00,CLR,,0.00,WeatherDisplay:10.37,2013-05-05 13:30:00,
2013-05-05 09:35:00,61.4,45.6,29.97,ESE,117,3.5,3.5,56,0.00,CLR,,0.00,WeatherDisplay:10.37,2013-05-05 13:35:00,
2013-05-05 09:40:00,61.2,45.8,29.97,ENE,77,5.8,5.8,57,0.00,CLR,,0.00,WeatherDisplay:10.37,2013-05-05 13:40:00,
2013-05-05 09:45:00,62.1,46.7,29.97,ESE,103,3.5,3.5,57,0.00,CLR,,0.00,WeatherDisplay:10.37,2013-05-05 13:45:00,
2013-05-05 09:50:00,62.3,47.8,29.97,East,89,3.5,3.5,59,0.00,CLR,,0.00,WeatherDisplay:10.37,2013-05-05 13:50:00,
2013-05-05 09:55:00,62.2,45.3,29.97,ESE,103,1.2,0.0,54,0.00,CLR,,0.00,WeatherDisplay:10.37,2013-05-05 13:55:00,
2013-05-05 10:00:00,62.8,46.9,29.97,East,89,4.6,4.6,56,0.00,CLR,,0.00,WeatherDisplay:10.37,2013-05-05 14:00:00,
2013-05-05 10:05:00,63.5,46.6,29.97,East,86,3.0,3.0,54,0.00,CLR,,0.00,WeatherDisplay:10.37,2013-05-05 14:05:00,
2013-05-05 10:10:00,63.1,46.2,29.97,East,96,4.6,4.6,54,0.00,CLR,,0.00,WeatherDisplay:10.37,2013-05-05 14:10:00,
2013-05-05 10:15:00,63.5,47.5,29.96,ENE,69,5.0,5.0,56,0.00,CLR,,0.00,WeatherDisplay:10.37,2013-05-05 14:15:00,
2013-05-05 10:20:00,64.2,47.2,29.96,SE,126,9.2,9.2,54,0.00,CLR,,0.00,WeatherDisplay:10.37,2013-05-05 14:20:00,
2013-05-05 10:25:00,64.5,46.0,29.96,ESE,114,7.0,7.0,51,0.00,CLR,,0.00,WeatherDisplay:10.37,2013-05-05 14:25:00,
2013-05-05 10:30:00,64.6,46.6,29.96,ESE,116,8.1,8.1,52,0.00,CLR,,0.00,WeatherDisplay:10.37,2013-05-05 14:30:00,
2013-05-05 10:35:00,64.7,46.7,29.96,East,79,6.9,6.9,52,0.00,CLR,,0.00,WeatherDisplay:10.37,2013-05-05 14:35:00,
2013-05-05 10:40:00,64.9,48.3,29.96,East,82,5.0,5.0,55,0.00,CLR,,0.00,WeatherDisplay:10.37,2013-05-05 14:40:00,
2013-05-05 10:45:00,65.8,47.2,29.96,ENE,77,3.5,3.5,51,0.00,CLR,,0.00,WeatherDisplay:10.37,2013-05-05 14:45:00,
2013-05-05 10:50:00,66.3,47.1,29.96,ESE,121,4.6,4.6,50,0.00,CLR,,0.00,WeatherDisplay:10.37,2013-05-05 14:50:00,
2013-05-05 10:55:00,66.7,48.0,29.95,ESE,123,5.0,5.0,51,0.00,CLR,,0.00,WeatherDisplay:10.37,2013-05-05 14:55:00,
2013-05-05 11:01:00,66.7,47.5,29.95,East,93,4.0,4.0,50,0.00,CLR,,0.00,WeatherDisplay:10.37,2013-05-05 15:01:00,
2013-05-05 11:06:00,66.5,46.7,29.95,ENE,62,5.0,5.0,49,0.00,CLR,,0.00,WeatherDisplay:10.37,2013-05-05 15:06:00,
2013-05-05 11:11:00,67.0,47.2,29.95,ENE,64,3.5,3.5,49,0.00,CLR,,0.00,WeatherDisplay:10.37,2013-05-05 15:11:00,
2013-05-05 11:16:00,67.7,46.7,29.95,East,92,6.0,6.0,47,0.00,CLR,,0.00,WeatherDisplay:10.37,2013-05-05 15:16:00,
2013-05-05 11:21:00,67.5,45.4,29.95,East,83,0.0,0.0,45,0.00,CLR,,0.00,WeatherDisplay:10.37,2013-05-05 15:21:00,
2013-05-05 11:26:00,67.9,46.9,29.95,East,83,5.0,5.0,47,0.00,CLR,,0.00,WeatherDisplay:10.37,2013-05-05 15:26:00,
2013-05-05 11:31:00,68.4,45.0,29.95,East,92,3.5,3.5,43,0.00,CLR,,0.00,WeatherDisplay:10.37,2013-05-05 15:31:00,
2013-05-05 11:36:00,68.6,45.2,29.95,East,93,0.0,0.0,43,0.00,CLR,,0.00,WeatherDisplay:10.37,2013-05-05 15:36:00,
2013-05-05 11:41:00,68.8,44.8,29.94,East,98,2.3,2.3,42,0.00,CLR,,0.00,WeatherDisplay:10.37,2013-05-05 15:41:00,
2013-05-05 11:46:00,68.8,46.0,29.94,ESE,121,6.9,6.9,44,0.00,CLR,,0.00,WeatherDisplay:10.37,2013-05-05 15:46:00,
2013-05-05 11:51:00,69.0,47.4,29.94,East,92,3.0,3.0,46,0.00,CLR,,0.00,WeatherDisplay:10.37,2013-05-05 15:51:00,
2013-05-05 11:56:00,70.2,46.0,29.94,ESE,123,4.6,4.6,42,0.00,CLR,,0.00,WeatherDisplay:10.37,2013-05-05 15:56:00,
2013-05-05 12:01:00,70.2,45.4,29.94,SE,130,3.5,3.5,41,0.00,CLR,,0.00,WeatherDisplay:10.37,2013-05-05 16:01:00,
2013-05-05 12:06:00,70.6,45.1,29.94,SE,125,5.8,5.8,40,0.00,CLR,,0.00,WeatherDisplay:10.37,2013-05-05 16:06:00,
2013-05-05 12:11:00,70.3,46.1,29.93,East,101,6.0,6.0,42,0.00,CLR,,0.00,WeatherDisplay:10.37,2013-05-05 16:11:00,
2013-05-05 12:16:00,70.5,43.7,29.93,SSE,151,3.5,3.5,38,0.00,CLR,,0.00,WeatherDisplay:10.37,2013-05-05 16:16:00,
2013-05-05 12:21:00,71.2,46.3,29.93,ESE,117,3.5,3.5,41,0.00,CLR,,0.00,WeatherDisplay:10.37,2013-05-05 16:21:00,
2013-05-05 12:26:00,71.5,45.2,29.93,ESE,119,5.0,5.0,39,0.00,CLR,,0.00,WeatherDisplay:10.37,2013-05-05 16:26:00,
2013-05-05 12:31:00,71.5,45.2,29.93,ESE,120,0.0,0.0,39,0.00,CLR,,0.00,WeatherDisplay:10.37,2013-05-05 16:31:00,
2013-05-05 12:36:00,71.3,45.1,29.92,SE,126,3.5,3.5,39,0.00,CLR,,0.00,WeatherDisplay:10.37,2013-05-05 16:36:00,
2013-05-05 12:41:00,71.7,43.3,29.92,North,360,5.0,5.0,36,0.00,CLR,,0.00,WeatherDisplay:10.37,2013-05-05 16:41:00,
2013-05-05 12:46:00,71.6,44.6,29.92,ESE,107,8.1,8.1,38,0.00,CLR,,0.00,WeatherDisplay:10.37,2013-05-05 16:46:00,
2013-05-05 12:51:00,71.8,44.1,29.92,ESE,110,4.6,4.6,37,0.00,CLR,,0.00,WeatherDisplay:10.37,2013-05-05 16:51:00,
2013-05-05 12:56:00,71.3,43.0,29.92,WSW,256,5.0,5.0,36,0.00,CLR,,0.00,WeatherDisplay:10.37,2013-05-05 16:56:00,
2013-05-05 13:01:00,71.9,44.9,29.92,East,90,5.0,5.0,38,0.00,CLR,,0.00,WeatherDisplay:10.37,2013-05-05 17:01:00,
2013-05-05 13:06:00,72.3,46.6,29.92,ESE,110,6.0,6.0,40,0.00,CLR,,0.00,WeatherDisplay:10.37,2013-05-05 17:06:00,
2013-05-05 13:11:00,73.6,45.7,29.92,ESE,110,12.7,12.7,37,0.00,CLR,,0.00,WeatherDisplay:10.37,2013-05-05 17:11:00,
2013-05-05 13:16:00,72.4,44.6,29.92,East,87,3.5,3.5,37,0.00,CLR,,0.00,WeatherDisplay:10.37,2013-05-05 17:16:00,
2013-05-05 13:21:00,72.6,46.9,29.92,ESE,109,10.4,10.4,40,0.00,CLR,,0.00,WeatherDisplay:10.37,2013-05-05 17:21:00,
2013-05-05 13:26:00,72.5,43.3,29.91,ENE,76,6.9,6.9,35,0.00,CLR,,0.00,WeatherDisplay:10.37,2013-05-05 17:26:00,
2013-05-05 13:31:00,72.1,44.4,29.91,NNE,30,6.9,6.9,37,0.00,CLR,,0.00,WeatherDisplay:10.37,2013-05-05 17:31:00,
2013-05-05 13:36:00,73.0,43.7,29.91,SE,134,14.0,14.0,35,0.00,CLR,,0.00,WeatherDisplay:10.37,2013-05-05 17:36:00,
2013-05-05 13:41:00,74.2,44.0,29.91,ESE,123,11.5,11.5,34,0.00,CLR,,0.00,WeatherDisplay:10.37,2013-05-05 17:41:00,
2013-05-05 13:46:00,73.1,42.3,29.91,SE,124,4.6,4.6,33,0.00,CLR,,0.00,WeatherDisplay:10.37,2013-05-05 17:46:00,
2013-05-05 13:51:00,73.5,43.4,29.91,SE,131,8.1,8.1,34,0.00,CLR,,0.00,WeatherDisplay:10.37,2013-05-05 17:51:00,
2013-05-05 13:56:00,74.7,44.5,29.91,East,87,13.8,13.8,34,0.00,CLR,,0.00,WeatherDisplay:10.37,2013-05-05 17:56:00,
2013-05-05 14:01:00,75.1,42.4,29.90,East,93,8.1,8.1,31,0.00,CLR,,0.00,WeatherDisplay:10.37,2013-05-05 18:01:00,
2013-05-05 14:06:00,74.5,44.3,29.90,East,91,8.0,8.0,34,0.00,CLR,,0.00,WeatherDisplay:10.37,2013-05-05 18:06:00,
2013-05-05 14:11:00,74.7,43.7,29.90,ENE,67,10.4,10.4,33,0.00,CLR,,0.00,WeatherDisplay:10.37,2013-05-05 18:11:00,
2013-05-05 14:16:00,75.0,40.6,29.90,ESE,115,11.5,11.5,29,0.00,CLR,,0.00,WeatherDisplay:10.37,2013-05-05 18:16:00,
2013-05-05 14:21:00,74.5,41.9,29.89,East,100,2.3,2.3,31,0.00,CLR,,0.00,WeatherDisplay:10.37,2013-05-05 18:21:00,
2013-05-05 14:26:00,75.3,41.7,29.89,ESE,105,12.0,12.0,30,0.00,CLR,,0.00,WeatherDisplay:10.37,2013-05-05 18:26:00,
2013-05-05 14:31:00,75.9,40.4,29.89,East,80,11.5,11.5,28,0.00,CLR,,0.00,WeatherDisplay:10.37,2013-05-05 18:31:00,
2013-05-05 14:36:00,76.0,39.6,29.89,SE,136,12.7,12.7,27,0.00,CLR,,0.00,WeatherDisplay:10.37,2013-05-05 18:36:00,
2013-05-05 14:41:00,76.3,40.8,29.88,ESE,123,15.0,15.0,28,0.00,CLR,,0.00,WeatherDisplay:10.37,2013-05-05 18:41:00,
2013-05-05 14:46:00,76.5,41.0,29.88,East,79,16.1,16.1,28,0.00,CLR,,0.00,WeatherDisplay:10.37,2013-05-05 18:46:00,
2013-05-05 14:51:00,76.2,38.8,29.88,East,86,8.1,8.1,26,0.00,CLR,,0.00,WeatherDisplay:10.37,2013-05-05 18:51:00,
2013-05-05 14:56:00,75.7,39.3,29.88,SE,133,6.9,6.9,27,0.00,CLR,,0.00,WeatherDisplay:10.37,2013-05-05 18:56:00,
2013-05-05 15:01:00,76.1,39.7,29.88,SE,126,9.2,9.2,27,0.00,CLR,,0.00,WeatherDisplay:10.37,2013-05-05 19:01:00,
2013-05-05 15:06:00,75.7,41.2,29.88,ENE,61,9.2,9.2,29,0.00,CLR,,0.00,WeatherDisplay:10.37,2013-05-05 19:06:00,
2013-05-05 15:11:00,75.6,40.2,29.88,East,100,17.3,17.3,28,0.00,CLR,,0.00,WeatherDisplay:10.37,2013-05-05 19:11:00,
2013-05-05 15:16:00,76.5,39.0,29.87,ESE,102,13.8,13.8,26,0.00,CLR,,0.00,WeatherDisplay:10.37,2013-05-05 19:16:00,
2013-05-05 15:21:00,75.5,41.9,29.87,East,82,9.2,9.2,30,0.00,CLR,,0.00,WeatherDisplay:10.37,2013-05-05 19:21:00,
2013-05-05 15:26:00,76.4,39.9,29.87,ESE,119,8.1,8.1,27,0.00,CLR,,0.00,WeatherDisplay:10.37,2013-05-05 19:26:00,
2013-05-05 15:31:00,76.3,39.8,29.87,ESE,115,10.0,10.0,27,0.00,CLR,,0.00,WeatherDisplay:10.37,2013-05-05 19:31:00,
2013-05-05 15:36:00,76.6,41.0,29.87,ENE,67,9.2,9.2,28,0.00,CLR,,0.00,WeatherDisplay:10.37,2013-05-05 19:36:00,
2013-05-05 15:41:00,76.7,39.2,29.86,East,86,11.5,11.5,26,0.00,CLR,,0.00,WeatherDisplay:10.37,2013-05-05 19:41:00,
2013-05-05 15:46:00,77.1,41.5,29.86,East,96,13.8,13.8,28,0.00,CLR,,0.00,WeatherDisplay:10.37,2013-05-05 19:46:00,
2013-05-05 15:51:00,76.2,38.8,29.86,SE,143,7.0,7.0,26,0.00,CLR,,0.00,WeatherDisplay:10.37,2013-05-05 19:51:00,
2013-05-05 15:56:00,76.8,40.3,29.86,East,84,13.0,13.0,27,0.00,CLR,,0.00,WeatherDisplay:10.37,2013-05-05 19:56:00,
2013-05-05 16:01:00,76.5,39.0,29.86,SE,127,9.2,9.2,26,0.00,CLR,,0.00,WeatherDisplay:10.37,2013-05-05 20:01:00,
2013-05-05 16:06:00,76.3,39.8,29.85,East,96,10.4,10.4,27,0.00,CLR,,0.00,WeatherDisplay:10.37,2013-05-05 20:06:00,
2013-05-05 16:11:00,76.4,40.9,29.85,ENE,74,9.2,9.2,28,0.00,CLR,,0.00,WeatherDisplay:10.37,2013-05-05 20:11:00,
2013-05-05 16:16:00,76.6,41.0,29.85,ESE,109,14.0,14.0,28,0.00,CLR,,0.00,WeatherDisplay:10.37,2013-05-05 20:16:00,
2013-05-05 16:21:00,76.7,40.2,29.85,East,82,10.4,10.4,27,0.00,CLR,,0.00,WeatherDisplay:10.37,2013-05-05 20:21:00,
2013-05-05 16:26:00,76.2,37.8,29.85,East,100,9.2,9.2,25,0.00,CLR,,0.00,WeatherDisplay:10.37,2013-05-05 20:26:00,
2013-05-05 16:31:00,76.6,39.1,29.85,East,81,13.0,13.0,26,0.00,CLR,,0.00,WeatherDisplay:10.37,2013-05-05 20:31:00,
2013-05-05 16:36:00,76.7,39.2,29.85,East,90,12.7,12.7,26,0.00,CLR,,0.00,WeatherDisplay:10.37,2013-05-05 20:36:00,
2013-05-05 16:41:00,76.7,39.2,29.85,ESE,117,11.5,11.5,26,0.00,CLR,,0.00,WeatherDisplay:10.37,2013-05-05 20:41:00,
2013-05-05 16:46:00,76.8,37.3,29.85,ENE,58,10.4,10.4,24,0.00,CLR,,0.00,WeatherDisplay:10.37,2013-05-05 20:46:00,
2013-05-05 16:51:00,76.4,39.0,29.85,East,86,5.0,5.0,26,0.00,CLR,,0.00,WeatherDisplay:10.37,2013-05-05 20:51:00,
2013-05-05 16:56:00,76.6,38.1,29.85,ESE,103,11.0,11.0,25,0.00,CLR,,0.00,WeatherDisplay:10.37,2013-05-05 20:56:00,
2013-05-05 17:01:00,76.7,36.1,29.85,ESE,113,12.7,12.7,23,0.00,CLR,,0.00,WeatherDisplay:10.37,2013-05-05 21:01:00,
2013-05-05 17:06:00,76.6,36.0,29.85,ESE,109,12.7,12.7,23,0.00,CLR,,0.00,WeatherDisplay:10.37,2013-05-05 21:06:00,
2013-05-05 17:11:00,76.6,36.0,29.84,ESE,103,11.0,11.0,23,0.00,CLR,,0.00,WeatherDisplay:10.37,2013-05-05 21:11:00,
2013-05-05 17:16:00,76.5,34.8,29.84,ENE,63,11.5,11.5,22,0.00,CLR,,0.00,WeatherDisplay:10.37,2013-05-05 21:16:00,
2013-05-05 17:21:00,76.2,35.7,29.84,ESE,107,11.5,11.5,23,0.00,CLR,,0.00,WeatherDisplay:10.37,2013-05-05 21:21:00,
2013-05-05 17:26:00,76.3,34.6,29.84,ESE,113,8.0,8.0,22,0.00,CLR,,0.00,WeatherDisplay:10.37,2013-05-05 21:26:00,
2013-05-05 17:31:00,76.2,32.2,29.84,East,100,11.5,11.5,20,0.00,CLR,,0.00,WeatherDisplay:10.37,2013-05-05 21:31:00,
2013-05-05 17:36:00,76.5,33.6,29.84,East,84,11.5,11.5,21,0.00,CLR,,0.00,WeatherDisplay:10.37,2013-05-05 21:36:00,
2013-05-05 17:41:00,76.0,32.0,29.84,ENE,63,10.4,10.4,20,0.00,CLR,,0.00,WeatherDisplay:10.37,2013-05-05 21:41:00,
2013-05-05 17:46:00,75.8,34.2,29.84,East,88,11.5,11.5,22,0.00,CLR,,0.00,WeatherDisplay:10.37,2013-05-05 21:46:00,
2013-05-05 17:51:00,75.7,37.4,29.84,NE,55,8.1,8.1,25,0.00,CLR,,0.00,WeatherDisplay:10.37,2013-05-05 21:51:00,
2013-05-05 17:56:00,75.5,34.0,29.84,East,86,12.7,12.7,22,0.00,CLR,,0.00,WeatherDisplay:10.37,2013-05-05 21:56:00,
2013-05-05 18:01:00,75.5,34.0,29.84,East,83,9.2,9.2,22,0.00,CLR,,0.00,WeatherDisplay:10.37,2013-05-05 22:01:00,
2013-05-05 18:06:00,75.5,37.2,29.84,East,79,6.0,6.0,25,0.00,CLR,,0.00,WeatherDisplay:10.37,2013-05-05 22:06:00,
2013-05-05 18:11:00,75.3,33.8,29.84,ENE,71,5.0,5.0,22,0.00,CLR,,0.00,WeatherDisplay:10.37,2013-05-05 22:11:00,
2013-05-05 18:16:00,75.0,34.7,29.84,ENE,58,10.4,10.4,23,0.00,CLR,,0.00,WeatherDisplay:10.37,2013-05-05 22:16:00,
2013-05-05 18:21:00,75.2,36.9,29.84,ESE,123,11.5,11.5,25,0.00,CLR,,0.00,WeatherDisplay:10.37,2013-05-05 22:21:00,
2013-05-05 18:26:00,74.9,36.7,29.84,ESE,118,11.5,11.5,25,0.00,CLR,,0.00,WeatherDisplay:10.37,2013-05-05 22:26:00,
2013-05-05 18:31:00,74.7,35.5,29.84,SE,129,11.5,11.5,24,0.00,CLR,,0.00,WeatherDisplay:10.37,2013-05-05 22:31:00,
2013-05-05 18:36:00,74.6,35.4,29.84,ESE,117,11.5,11.5,24,0.00,CLR,,0.00,WeatherDisplay:10.37,2013-05-05 22:36:00,
2013-05-05 18:41:00,74.2,36.1,29.84,SE,140,7.0,7.0,25,0.00,CLR,,0.00,WeatherDisplay:10.37,2013-05-05 22:41:00,
2013-05-05 18:46:00,74.4,34.2,29.84,ESE,115,6.9,6.9,23,0.00,CLR,,0.00,WeatherDisplay:10.37,2013-05-05 22:46:00,
2013-05-05 18:51:00,73.9,34.8,29.84,SE,146,9.0,9.0,24,0.00,CLR,,0.00,WeatherDisplay:10.37,2013-05-05 22:51:00,
2013-05-05 18:56:00,73.6,32.4,29.84,East,99,8.1,8.1,22,0.00,CLR,,0.00,WeatherDisplay:10.37,2013-05-05 22:56:00,
2013-05-05 19:01:00,73.2,34.2,29.84,ESE,111,5.0,5.0,24,0.00,CLR,,0.00,WeatherDisplay:10.37,2013-05-05 23:01:00,
2013-05-05 19:06:00,73.2,32.1,29.84,ESE,109,9.0,9.0,22,0.00,CLR,,0.00,WeatherDisplay:10.37,2013-05-05 23:06:00,
2013-05-05 19:11:00,73.2,32.1,29.84,East,98,7.0,7.0,22,0.00,CLR,,0.00,WeatherDisplay:10.37,2013-05-05 23:11:00,
2013-05-05 19:16:00,73.0,31.9,29.84,ESE,109,9.0,9.0,22,0.00,CLR,,0.00,WeatherDisplay:10.37,2013-05-05 23:16:00,
2013-05-05 19:21:00,72.7,31.6,29.84,ESE,103,8.1,8.1,22,0.00,CLR,,0.00,WeatherDisplay:10.37,2013-05-05 23:21:00,
2013-05-05 19:26:00,72.4,32.5,29.84,East,95,8.1,8.1,23,0.00,CLR,,0.00,WeatherDisplay:10.37,2013-05-05 23:26:00,
2013-05-05 19:31:00,72.1,31.1,29.84,East,94,5.8,5.8,22,0.00,CLR,,0.00,WeatherDisplay:10.37,2013-05-05 23:31:00,
2013-05-05 19:36:00,71.7,31.9,29.84,East,90,4.6,4.6,23,0.00,CLR,,0.00,WeatherDisplay:10.37,2013-05-05 23:36:00,
2013-05-05 19:41:00,71.2,31.5,29.85,East,90,3.5,3.5,23,0.00,CLR,,0.00,WeatherDisplay:10.37,2013-05-05 23:41:00,
2013-05-05 19:46:00,71.0,31.3,29.85,East,88,5.8,5.8,23,0.00,CLR,,0.00,WeatherDisplay:10.37,2013-05-05 23:46:00,
2013-05-05 19:51:00,70.5,30.9,29.85,East,83,3.5,3.5,23,0.00,CLR,,0.00,WeatherDisplay:10.37,2013-05-05 23:51:00,
2013-05-05 19:56:00,70.2,30.6,29.85,ENE,77,3.5,3.5,23,0.00,CLR,,0.00,WeatherDisplay:10.37,2013-05-05 23:56:00,
2013-05-05 20:01:00,69.8,30.3,29.85,East,86,6.0,6.0,23,0.00,CLR,,0.00,WeatherDisplay:10.37,2013-05-06 00:01:00,
2013-05-05 20:06:00,69.5,30.0,29.85,East,87,3.5,3.5,23,0.00,CLR,,0.00,WeatherDisplay:10.37,2013-05-06 00:06:00,
2013-05-05 20:11:00,69.2,30.8,29.85,East,82,4.6,4.6,24,0.00,CLR,,0.00,WeatherDisplay:10.37,2013-05-06 00:11:00,
2013-05-05 20:16:00,68.9,29.5,29.85,ENE,74,3.5,3.5,23,0.00,CLR,,0.00,WeatherDisplay:10.37,2013-05-06 00:16:00,
2013-05-05 20:21:00,68.6,29.3,29.85,East,91,5.0,5.0,23,0.00,CLR,,0.00,WeatherDisplay:10.37,2013-05-06 00:21:00,
2013-05-05 20:26:00,68.5,29.2,29.85,ENE,78,3.0,3.0,23,0.00,CLR,,0.00,WeatherDisplay:10.37,2013-05-06 00:26:00,
2013-05-05 20:31:00,68.4,29.1,29.86,ENE,71,3.5,3.5,23,0.00,CLR,,0.00,WeatherDisplay:10.37,2013-05-06 00:31:00,
2013-05-05 20:36:00,68.3,29.0,29.86,ENE,71,2.3,2.3,23,0.00,CLR,,0.00,WeatherDisplay:10.37,2013-05-06 00:36:00,
2013-05-05 20:41:00,68.0,29.8,29.86,ENE,71,2.3,2.3,24,0.00,CLR,,0.00,WeatherDisplay:10.37,2013-05-06 00:41:00,
2013-05-05 20:46:00,67.8,29.7,29.86,ENE,67,5.0,5.0,24,0.00,CLR,,0.00,WeatherDisplay:10.37,2013-05-06 00:46:00,
2013-05-05 20:51:00,67.7,30.6,29.86,ENE,74,3.5,3.5,25,0.00,CLR,,0.00,WeatherDisplay:10.37,2013-05-06 00:51:00,
2013-05-05 20:56:00,67.5,30.4,29.86,ENE,67,3.5,3.5,25,0.00,CLR,,0.00,WeatherDisplay:10.37,2013-05-06 00:56:00,
2013-05-05 21:01:00,67.3,30.2,29.86,ENE,66,4.0,4.0,25,0.00,CLR,,0.00,WeatherDisplay:10.37,2013-05-06 01:01:00,
2013-05-05 21:06:00,66.8,30.8,29.86,ENE,66,3.0,3.0,26,0.00,CLR,,0.00,WeatherDisplay:10.37,2013-05-06 01:06:00,
2013-05-05 21:11:00,66.5,30.5,29.87,ENE,72,3.0,3.0,26,0.00,CLR,,0.00,WeatherDisplay:10.37,2013-05-06 01:11:00,
2013-05-05 21:16:00,66.2,31.2,29.87,ENE,76,3.5,3.5,27,0.00,CLR,,0.00,WeatherDisplay:10.37,2013-05-06 01:16:00,
2013-05-05 21:21:00,65.9,30.9,29.87,ENE,76,2.3,2.3,27,0.00,CLR,,0.00,WeatherDisplay:10.37,2013-05-06 01:21:00,
2013-05-05 21:26:00,65.7,30.8,29.87,ENE,77,4.6,4.6,27,0.00,CLR,,0.00,WeatherDisplay:10.37,2013-05-06 01:26:00,
2013-05-05 21:31:00,65.5,31.5,29.87,ENE,74,4.0,4.0,28,0.00,CLR,,0.00,WeatherDisplay:10.37,2013-05-06 01:31:00,
2013-05-05 21:36:00,65.1,31.2,29.87,ENE,74,3.5,3.5,28,0.00,CLR,,0.00,WeatherDisplay:10.37,2013-05-06 01:36:00,
2013-05-05 21:41:00,64.8,31.8,29.87,ENE,69,3.5,3.5,29,0.00,CLR,,0.00,WeatherDisplay:10.37,2013-05-06 01:41:00,
2013-05-05 21:46:00,64.7,31.7,29.87,ENE,57,8.1,8.1,29,0.00,CLR,,0.00,WeatherDisplay:10.37,2013-05-06 01:46:00,
2013-05-05 21:51:00,64.7,32.5,29.87,ENE,65,8.1,8.1,30,0.00,CLR,,0.00,WeatherDisplay:10.37,2013-05-06 01:51:00,
2013-05-05 21:56:00,64.5,32.4,29.87,East,83,8.0,8.0,30,0.00,CLR,,0.00,WeatherDisplay:10.37,2013-05-06 01:56:00,
2013-05-05 22:01:00,64.2,32.9,29.88,East,86,7.0,7.0,31,0.00,CLR,,0.00,WeatherDisplay:10.37,2013-05-06 02:01:00,
2013-05-05 22:06:00,63.4,33.0,29.88,East,79,8.0,8.0,32,0.00,CLR,,0.00,WeatherDisplay:10.37,2013-05-06 02:06:00,
2013-05-05 22:11:00,62.9,33.3,29.88,East,91,5.0,5.0,33,0.00,CLR,,0.00,WeatherDisplay:10.37,2013-05-06 02:11:00,
2013-05-05 22:16:00,62.7,33.2,29.88,East,89,5.8,5.8,33,0.00,CLR,,0.00,WeatherDisplay:10.37,2013-05-06 02:16:00,
2013-05-05 22:21:00,62.2,32.7,29.88,East,86,3.5,3.5,33,0.00,CLR,,0.00,WeatherDisplay:10.37,2013-05-06 02:21:00,
2013-05-05 22:26:00,61.9,32.5,29.88,East,94,5.8,5.8,33,0.00,CLR,,0.00,WeatherDisplay:10.37,2013-05-06 02:26:00,
2013-05-05 22:31:00,61.8,32.4,29.88,East,96,7.0,7.0,33,0.00,CLR,,0.00,WeatherDisplay:10.37,2013-05-06 02:31:00,
2013-05-05 22:36:00,62.0,31.8,29.88,East,95,9.2,9.2,32,0.00,CLR,,0.00,WeatherDisplay:10.37,2013-05-06 02:36:00,
2013-05-05 22:41:00,62.1,31.1,29.88,East,90,6.9,6.9,31,0.00,CLR,,0.00,WeatherDisplay:10.37,2013-05-06 02:41:00,
2013-05-05 22:46:00,62.1,31.1,29.88,East,79,8.1,8.1,31,0.00,CLR,,0.00,WeatherDisplay:10.37,2013-05-06 02:46:00,
2013-05-05 22:51:00,61.9,31.7,29.88,ENE,65,5.0,5.0,32,0.00,CLR,,0.00,WeatherDisplay:10.37,2013-05-06 02:51:00,
2013-05-05 22:56:00,61.6,30.6,29.88,ENE,69,5.0,5.0,31,0.00,CLR,,0.00,WeatherDisplay:10.37,2013-05-06 02:56:00,
2013-05-05 23:01:00,61.4,31.3,29.88,ENE,76,4.0,4.0,32,0.00,CLR,,0.00,WeatherDisplay:10.37,2013-05-06 03:01:00,
2013-05-05 23:06:00,61.2,31.8,29.88,East,93,5.0,5.0,33,0.00,CLR,,0.00,WeatherDisplay:10.37,2013-05-06 03:06:00,
2013-05-05 23:11:00,60.9,32.3,29.88,East,88,3.5,3.5,34,0.00,CLR,,0.00,WeatherDisplay:10.37,2013-05-06 03:11:00,
2013-05-05 23:16:00,60.3,32.5,29.89,East,81,3.5,3.5,35,0.00,CLR,,0.00,WeatherDisplay:10.37,2013-05-06 03:16:00,
2013-05-05 23:21:00,60.3,31.8,29.89,East,81,3.5,3.5,34,0.00,CLR,,0.00,WeatherDisplay:10.37,2013-05-06 03:21:00,
2013-05-05 23:26:00,60.3,31.0,29.89,ENE,69,3.5,3.5,33,0.00,CLR,,0.00,WeatherDisplay:10.37,2013-05-06 03:26:00,
2013-05-05 23:31:00,60.3,31.0,29.89,ENE,61,5.0,5.0,33,0.00,CLR,,0.00,WeatherDisplay:10.37,2013-05-06 03:31:00,
2013-05-05 23:36:00,60.4,30.4,29.89,East,92,5.0,5.0,32,0.00,CLR,,0.00,WeatherDisplay:10.37,2013-05-06 03:36:00,
2013-05-05 23:41:00,60.3,29.5,29.89,East,85,6.9,6.9,31,0.00,CLR,,0.00,WeatherDisplay:10.37,2013-05-06 03:41:00,
2013-05-05 23:46:00,60.3,30.3,29.89,ENE,60,9.0,9.0,32,0.00,CLR,,0.00,WeatherDisplay:10.37,2013-05-06 03:46:00,
2013-05-05 23:51:00,60.0,30.8,29.90,ENE,65,4.0,4.0,33,0.00,CLR,,0.00,WeatherDisplay:10.37,2013-05-06 03:51:00,
2013-05-05 23:56:00,59.3,30.9,29.90,East,84,4.6,4.6,34,0.00,CLR,,0.00,WeatherDisplay:10.37,2013-05-06 03:56:00,